createdAt,value
2023-09-08T00:04:00.029Z,17.3
2023-09-08T00:14:01.827Z,17
2023-09-08T00:24:04.105Z,16.7
2023-09-08T00:34:06.501Z,16.5
2023-09-08T00:44:08.326Z,16.3
2023-09-08T00:54:10.871Z,16.1
2023-09-08T01:04:12.599Z,15.9
2023-09-08T01:14:14.884Z,15.9
2023-09-08T01:24:17.275Z,15.8
2023-09-08T01:34:19.834Z,15.6
2023-09-08T01:44:22.284Z,15.6
2023-09-08T01:54:24.834Z,15.5
2023-09-08T02:04:27.327Z,15.3
2023-09-08T02:14:29.406Z,15.2
2023-09-08T02:24:31.450Z,15.1
2023-09-08T02:34:33.477Z,15.1
2023-09-08T02:44:35.603Z,15
2023-09-08T02:54:37.856Z,14.9
2023-09-08T03:14:41.773Z,14.7
2023-09-08T03:34:46.972Z,14.5
2023-09-08T04:55:04.868Z,14.4
2023-09-08T06:45:28.694Z,19.5
2023-09-08T07:05:32.948Z,20.6
2023-09-08T07:15:35.274Z,21.1
2023-09-08T07:25:37.285Z,21.3
2023-09-08T07:45:41.790Z,22.4
2023-09-08T08:05:45.944Z,23.3
2023-09-08T08:25:50.423Z,24.8
2023-09-08T08:55:57.089Z,25.8
2023-09-08T09:05:59.515Z,26.4
2023-09-08T10:16:15.280Z,28.4
2023-09-08T10:36:19.397Z,29
2023-09-08T10:56:24.432Z,29.5
2023-09-08T11:16:29.423Z,29.4
2023-09-08T11:26:31.763Z,29.8
2023-09-08T11:36:33.788Z,30.7
2023-09-08T11:46:35.820Z,30.4
2023-09-08T11:56:38.641Z,30.2
2023-09-08T12:06:40.068Z,30.3
2023-09-08T12:16:42.711Z,31.1
2023-09-08T12:26:45.096Z,31.3
2023-09-08T12:36:46.888Z,31.1
2023-09-08T12:56:51.137Z,31.5
2023-09-08T13:06:53.145Z,31.7
2023-09-08T13:16:55.094Z,32.7
2023-09-08T13:26:56.852Z,32.1
2023-09-08T13:36:59.208Z,33.3
2023-09-08T13:47:01.666Z,32.3
2023-09-08T14:07:08.969Z,32
2023-09-08T14:17:08.465Z,32
2023-09-08T14:27:10.515Z,32.3
2023-09-08T14:37:12.289Z,31.6
2023-09-08T14:47:14.122Z,31.5
2023-09-08T16:27:36.281Z,30
2023-09-08T17:40:46.738Z,27.8
2023-09-08T18:18:10.868Z,25.3
2023-09-08T18:28:12.562Z,25
2023-09-08T18:38:14.647Z,24.6
2023-09-08T18:58:19.498Z,23.9
2023-09-08T19:08:21.799Z,23.5
2023-09-08T19:18:24.201Z,23.1
2023-09-08T19:28:26.599Z,22.4
2023-09-08T19:38:30.445Z,22
2023-09-08T19:48:30.977Z,21.9
2023-09-08T19:58:32.605Z,21.8
2023-09-08T20:08:35.082Z,21.6
2023-09-08T20:18:37.420Z,21.4
2023-09-08T20:48:43.082Z,20.9
2023-09-08T21:08:47.378Z,20.6
2023-09-08T21:38:56.553Z,20.1
2023-09-08T21:58:57.940Z,19.8
2023-09-08T22:08:59.660Z,19.7
2023-09-08T22:19:02.051Z,19.5
2023-09-08T22:29:04.133Z,19.3
2023-09-08T22:39:06.411Z,19.3
2023-09-08T22:49:08.888Z,19.3
2023-09-08T22:59:10.595Z,19.1
2023-09-08T23:09:12.318Z,19
2023-09-08T23:19:14.752Z,18.9
2023-09-08T23:29:16.470Z,18.9
2023-09-08T23:39:18.431Z,18.8
2023-09-08T23:49:20.749Z,18.7
2023-09-08T23:59:22.507Z,18.6
